KALB/ALB METAR and TAF weather

Enter ICAO airport designator
Station Type Date Time Source
KALB METAR 2019/10/20 18:51 UTC NOAA

KALB 201851Z 17006KT 10SM -RA FEW075 OVC100 12/06 A3005 RMK AO2 SLP176 P0000 T01170061


Station Type Date Time Source
KALB Decoded METAR 2019/10/20 18:51 UTC NOAA

ALBANY INTERNATIONAL AIRPORT, NY, United States (KALB) 42-45N 73-48W
Oct 20, 2019 - 02:51 PM EDT / 2019.10.20 1851 UTC
Wind: from the S (170 degrees) at 7 MPH (6 KT):0
Visibility: 10 mile(s):0
Sky conditions: overcast
Weather: light rain
Precipitation last hour: A trace
Temperature: 53.1 F (11.7 C)
Dew Point: 43.0 F (6.1 C)
Relative Humidity: 68%
Pressure (altimeter): 30.05 in. Hg (1017 hPa)
ob: KALB 201851Z 17006KT 10SM -RA FEW075 OVC100 12/06 A3005 RMK AO2 SLP176 P0000 T01170061
cycle: 19

Station Type Date Time Source
KALB TAF 2019/10/20 18:39 UTC NOAA

TAF KALB 201737Z 2018/2118 17005KT P6SM BKN100 OVC110
FM202000 17004KT 6SM -SHRA BKN050 OVC070
FM202300 17004KT P6SM BKN060 BKN070
FM210700 35001KT 2SM BR BKN007
FM211100 34002KT 4SM BR SCT250
FM211300 35004KT P6SM SKC

Example: see airport list